sensor_id;sensor_type;location;lat;lon;timestamp;P1;durP1;ratioP1;P2;durP2;ratioP2
3267;SDS011;1646;52.450;13.326;2024-03-23T00:55:07;16.17;;;3.80;;
3267;SDS011;1646;52.450;13.326;2024-03-23T01:00:05;12.53;;;3.20;;
3267;SDS011;1646;52.450;13.326;2024-03-23T01:05:05;21.87;;;3.93;;
3267;SDS011;1646;52.450;13.326;2024-03-23T01:10:03;16.60;;;3.90;;
3267;SDS011;1646;52.450;13.326;2024-03-23T01:15:02;15.73;;;3.77;;
3267;SDS011;1646;52.450;13.326;2024-03-23T01:19:59;22.87;;;4.93;;
3267;SDS011;1646;52.450;13.326;2024-03-23T01:24:57;19.90;;;4.20;;
3267;SDS011;1646;52.450;13.326;2024-03-23T01:29:54;16.03;;;3.50;;
3267;SDS011;1646;52.450;13.326;2024-03-23T01:34:52;22.17;;;4.53;;
3267;SDS011;1646;52.450;13.326;2024-03-23T01:39:49;18.37;;;3.57;;
3267;SDS011;1646;52.450;13.326;2024-03-23T01:45:06;18.57;;;4.40;;
3267;SDS011;1646;52.450;13.326;2024-03-23T01:50:07;19.37;;;3.97;;
3267;SDS011;1646;52.450;13.326;2024-03-23T01:55:06;22.50;;;3.97;;
3267;SDS011;1646;52.450;13.326;2024-03-23T02:00:04;19.27;;;3.50;;
3267;SDS011;1646;52.450;13.326;2024-03-23T02:05:08;11.63;;;3.50;;
3267;SDS011;1646;52.450;13.326;2024-03-23T02:10:06;14.90;;;3.40;;
3267;SDS011;1646;52.450;13.326;2024-03-23T02:15:05;14.70;;;3.00;;
3267;SDS011;1646;52.450;13.326;2024-03-23T02:20:04;16.20;;;3.40;;
3267;SDS011;1646;52.450;13.326;2024-03-23T02:25:04;14.03;;;3.87;;
3267;SDS011;1646;52.450;13.326;2024-03-23T02:30:02;20.20;;;3.70;;
3267;SDS011;1646;52.450;13.326;2024-03-23T02:34:59;20.30;;;3.83;;
3267;SDS011;1646;52.450;13.326;2024-03-23T02:39:56;18.97;;;3.93;;
3267;SDS011;1646;52.450;13.326;2024-03-23T02:44:55;20.33;;;4.37;;
3267;SDS011;1646;52.450;13.326;2024-03-23T02:49:53;20.17;;;3.80;;
3267;SDS011;1646;52.450;13.326;2024-03-23T02:54:50;17.37;;;4.23;;
3267;SDS011;1646;52.450;13.326;2024-03-23T02:59:48;15.10;;;4.10;;
3267;SDS011;1646;52.450;13.326;2024-03-23T03:04:46;17.23;;;4.80;;
3267;SDS011;1646;52.450;13.326;2024-03-23T03:09:43;13.80;;;4.10;;
3267;SDS011;1646;52.450;13.326;2024-03-23T03:14:41;23.30;;;4.87;;
3267;SDS011;1646;52.450;13.326;2024-03-23T03:19:38;19.20;;;3.87;;
3267;SDS011;1646;52.450;13.326;2024-03-23T03:24:36;19.57;;;4.30;;
3267;SDS011;1646;52.450;13.326;2024-03-23T03:29:33;13.83;;;3.60;;
3267;SDS011;1646;52.450;13.326;2024-03-23T03:34:31;28.07;;;4.57;;
3267;SDS011;1646;52.450;13.326;2024-03-23T03:39:28;15.37;;;3.80;;
3267;SDS011;1646;52.450;13.326;2024-03-23T03:44:26;16.50;;;3.97;;
3267;SDS011;1646;52.450;13.326;2024-03-23T03:49:23;22.63;;;4.13;;
3267;SDS011;1646;52.450;13.326;2024-03-23T03:54:20;20.27;;;3.20;;
3267;SDS011;1646;52.450;13.326;2024-03-23T03:59:17;17.57;;;3.73;;
3267;SDS011;1646;52.450;13.326;2024-03-23T04:04:17;17.80;;;3.20;;
3267;SDS011;1646;52.450;13.326;2024-03-23T04:09:14;25.90;;;3.87;;
3267;SDS011;1646;52.450;13.326;2024-03-23T04:14:11;20.27;;;5.43;;
3267;SDS011;1646;52.450;13.326;2024-03-23T04:19:08;22.07;;;4.10;;
3267;SDS011;1646;52.450;13.326;2024-03-23T04:24:06;15.30;;;3.37;;
3267;SDS011;1646;52.450;13.326;2024-03-23T04:29:04;17.30;;;2.50;;
3267;SDS011;1646;52.450;13.326;2024-03-23T04:34:01;14.20;;;2.80;;
3267;SDS011;1646;52.450;13.326;2024-03-23T04:38:58;13.50;;;3.60;;
3267;SDS011;1646;52.450;13.326;2024-03-23T04:43:57;12.17;;;2.60;;
3267;SDS011;1646;52.450;13.326;2024-03-23T04:48:55;10.27;;;2.70;;
3267;SDS011;1646;52.450;13.326;2024-03-23T04:53:52;7.90;;;2.63;;
3267;SDS011;1646;52.450;13.326;2024-03-23T04:58:49;11.33;;;2.27;;
3267;SDS011;1646;52.450;13.326;2024-03-23T05:03:48;18.53;;;3.80;;
3267;SDS011;1646;52.450;13.326;2024-03-23T05:08:45;12.60;;;2.70;;
3267;SDS011;1646;52.450;13.326;2024-03-23T05:13:42;10.40;;;2.37;;
3267;SDS011;1646;52.450;13.326;2024-03-23T05:18:40;14.07;;;3.40;;
3267;SDS011;1646;52.450;13.326;2024-03-23T05:23:38;10.00;;;3.07;;
3267;SDS011;1646;52.450;13.326;2024-03-23T05:28:35;8.47;;;2.47;;
3267;SDS011;1646;52.450;13.326;2024-03-23T05:33:32;21.23;;;2.70;;
3267;SDS011;1646;52.450;13.326;2024-03-23T05:38:30;9.30;;;2.40;;
3267;SDS011;1646;52.450;13.326;2024-03-23T05:43:28;9.40;;;2.10;;
3267;SDS011;1646;52.450;13.326;2024-03-23T05:48:26;8.80;;;2.70;;
3267;SDS011;1646;52.450;13.326;2024-03-23T05:53:25;7.50;;;1.40;;
3267;SDS011;1646;52.450;13.326;2024-03-23T05:58:23;13.83;;;2.60;;
3267;SDS011;1646;52.450;13.326;2024-03-23T06:03:23;10.67;;;2.27;;
3267;SDS011;1646;52.450;13.326;2024-03-23T06:08:21;9.07;;;2.00;;
3267;SDS011;1646;52.450;13.326;2024-03-23T06:13:18;13.97;;;2.97;;
3267;SDS011;1646;52.450;13.326;2024-03-23T06:18:15;4.27;;;1.40;;
3267;SDS011;1646;52.450;13.326;2024-03-23T06:23:13;10.33;;;2.03;;
3267;SDS011;1646;52.450;13.326;2024-03-23T06:28:12;8.80;;;1.97;;
3267;SDS011;1646;52.450;13.326;2024-03-23T06:33:09;11.07;;;2.97;;
3267;SDS011;1646;52.450;13.326;2024-03-23T06:38:06;7.00;;;2.20;;
3267;SDS011;1646;52.450;13.326;2024-03-23T06:43:05;9.73;;;2.23;;
3267;SDS011;1646;52.450;13.326;2024-03-23T06:48:02;8.47;;;2.17;;
3267;SDS011;1646;52.450;13.326;2024-03-23T06:53:00;11.57;;;2.70;;
3267;SDS011;1646;52.450;13.326;2024-03-23T06:57:57;13.80;;;2.57;;
3267;SDS011;1646;52.450;13.326;2024-03-23T07:02:56;6.20;;;2.30;;
3267;SDS011;1646;52.450;13.326;2024-03-23T07:07:53;7.43;;;2.60;;
3267;SDS011;1646;52.450;13.326;2024-03-23T07:12:50;2.10;;;1.90;;
3267;SDS011;1646;52.450;13.326;2024-03-23T07:17:47;5.07;;;2.73;;
3267;SDS011;1646;52.450;13.326;2024-03-23T07:22:46;12.30;;;2.33;;
3267;SDS011;1646;52.450;13.326;2024-03-23T07:27:44;10.53;;;2.43;;
3267;SDS011;1646;52.450;13.326;2024-03-23T07:32:43;11.17;;;2.67;;
3267;SDS011;1646;52.450;13.326;2024-03-23T07:37:41;8.23;;;2.57;;
3267;SDS011;1646;52.450;13.326;2024-03-23T07:42:40;9.50;;;2.33;;
3267;SDS011;1646;52.450;13.326;2024-03-23T07:47:37;7.67;;;2.00;;
3267;SDS011;1646;52.450;13.326;2024-03-23T07:52:34;6.80;;;1.97;;
3267;SDS011;1646;52.450;13.326;2024-03-23T07:57:31;12.50;;;2.87;;
3267;SDS011;1646;52.450;13.326;2024-03-23T08:02:30;7.67;;;2.53;;
3267;SDS011;1646;52.450;13.326;2024-03-23T08:07:27;7.57;;;2.30;;
3267;SDS011;1646;52.450;13.326;2024-03-23T08:12:24;11.00;;;2.43;;
3267;SDS011;1646;52.450;13.326;2024-03-23T08:17:21;9.60;;;2.93;;
3267;SDS011;1646;52.450;13.326;2024-03-23T08:22:20;6.90;;;2.40;;
3267;SDS011;1646;52.450;13.326;2024-03-23T08:27:17;9.23;;;3.20;;
3267;SDS011;1646;52.450;13.326;2024-03-23T08:32:15;5.07;;;1.83;;
3267;SDS011;1646;52.450;13.326;2024-03-23T08:37:12;4.90;;;1.60;;
3267;SDS011;1646;52.450;13.326;2024-03-23T08:42:10;5.77;;;2.00;;
3267;SDS011;1646;52.450;13.326;2024-03-23T08:47:07;3.80;;;1.80;;
3267;SDS011;1646;52.450;13.326;2024-03-23T08:52:05;5.23;;;2.20;;
3267;SDS011;1646;52.450;13.326;2024-03-23T08:57:02;8.23;;;1.97;;
3267;SDS011;1646;52.450;13.326;2024-03-23T09:02:01;8.40;;;3.00;;
3267;SDS011;1646;52.450;13.326;2024-03-23T09:06:58;6.23;;;2.33;;
3267;SDS011;1646;52.450;13.326;2024-03-23T09:11:55;14.93;;;7.07;;
3267;SDS011;1646;52.450;13.326;2024-03-23T09:16:52;6.93;;;1.40;;
3267;SDS011;1646;52.450;13.326;2024-03-23T09:21:51;4.17;;;2.13;;
3267;SDS011;1646;52.450;13.326;2024-03-23T09:26:48;8.50;;;3.93;;
3267;SDS011;1646;52.450;13.326;2024-03-23T09:31:45;7.90;;;2.80;;
3267;SDS011;1646;52.450;13.326;2024-03-23T09:36:42;8.40;;;2.60;;
3267;SDS011;1646;52.450;13.326;2024-03-23T09:41:42;6.50;;;2.27;;
3267;SDS011;1646;52.450;13.326;2024-03-23T09:46:39;13.40;;;4.30;;
3267;SDS011;1646;52.450;13.326;2024-03-23T09:51:36;7.50;;;3.23;;
3267;SDS011;1646;52.450;13.326;2024-03-23T09:56:33;19.17;;;7.47;;
3267;SDS011;1646;52.450;13.326;2024-03-23T10:01:32;12.30;;;2.60;;
3267;SDS011;1646;52.450;13.326;2024-03-23T10:06:29;7.27;;;2.13;;
3267;SDS011;1646;52.450;13.326;2024-03-23T10:11:26;8.20;;;2.60;;
3267;SDS011;1646;52.450;13.326;2024-03-23T10:16:24;6.50;;;1.93;;
3267;SDS011;1646;52.450;13.326;2024-03-23T10:21:23;9.40;;;2.00;;
3267;SDS011;1646;52.450;13.326;2024-03-23T10:26:21;7.97;;;2.17;;
3267;SDS011;1646;52.450;13.326;2024-03-23T10:31:21;8.60;;;2.30;;
3267;SDS011;1646;52.450;13.326;2024-03-23T10:36:18;6.43;;;1.90;;
3267;SDS011;1646;52.450;13.326;2024-03-23T10:41:18;9.93;;;2.37;;
3267;SDS011;1646;52.450;13.326;2024-03-23T10:46:15;15.97;;;2.17;;
3267;SDS011;1646;52.450;13.326;2024-03-23T10:51:12;6.30;;;2.53;;
3267;SDS011;1646;52.450;13.326;2024-03-23T10:56:11;6.93;;;2.33;;
3267;SDS011;1646;52.450;13.326;2024-03-23T11:01:12;12.93;;;2.20;;
3267;SDS011;1646;52.450;13.326;2024-03-23T11:06:12;5.93;;;1.97;;
3267;SDS011;1646;52.450;13.326;2024-03-23T11:11:31;5.03;;;1.80;;
3267;SDS011;1646;52.450;13.326;2024-03-23T11:16:30;7.30;;;1.97;;
3267;SDS011;1646;52.450;13.326;2024-03-23T11:26:49;5.73;;;2.30;;
3267;SDS011;1646;52.450;13.326;2024-03-23T11:31:48;3.10;;;2.07;;
3267;SDS011;1646;52.450;13.326;2024-03-23T11:36:46;9.37;;;2.20;;
3267;SDS011;1646;52.450;13.326;2024-03-23T11:41:46;4.97;;;2.33;;
3267;SDS011;1646;52.450;13.326;2024-03-23T11:46:44;5.17;;;2.23;;
3267;SDS011;1646;52.450;13.326;2024-03-23T11:51:43;6.50;;;2.10;;
3267;SDS011;1646;52.450;13.326;2024-03-23T11:56:40;6.80;;;1.70;;
3267;SDS011;1646;52.450;13.326;2024-03-23T12:01:50;5.13;;;2.33;;
3267;SDS011;1646;52.450;13.326;2024-03-23T12:06:48;5.90;;;2.33;;
3267;SDS011;1646;52.450;13.326;2024-03-23T12:11:45;12.07;;;2.67;;
3267;SDS011;1646;52.450;13.326;2024-03-23T12:16:42;6.00;;;2.30;;
3267;SDS011;1646;52.450;13.326;2024-03-23T12:21:40;6.67;;;2.53;;
3267;SDS011;1646;52.450;13.326;2024-03-23T12:26:38;13.70;;;2.53;;
3267;SDS011;1646;52.450;13.326;2024-03-23T12:31:35;9.03;;;2.40;;
3267;SDS011;1646;52.450;13.326;2024-03-23T12:36:32;10.63;;;2.60;;
3267;SDS011;1646;52.450;13.326;2024-03-23T12:41:29;10.03;;;2.23;;
3267;SDS011;1646;52.450;13.326;2024-03-23T12:46:28;7.20;;;2.43;;
3267;SDS011;1646;52.450;13.326;2024-03-23T12:51:25;3.67;;;1.40;;
3267;SDS011;1646;52.450;13.326;2024-03-23T12:56:22;4.03;;;1.30;;
3267;SDS011;1646;52.450;13.326;2024-03-23T13:01:19;7.53;;;1.93;;
3267;SDS011;1646;52.450;13.326;2024-03-23T13:06:18;6.40;;;1.60;;
3267;SDS011;1646;52.450;13.326;2024-03-23T13:11:16;5.23;;;2.07;;
3267;SDS011;1646;52.450;13.326;2024-03-23T13:16:13;6.60;;;1.80;;
3267;SDS011;1646;52.450;13.326;2024-03-23T13:21:10;6.90;;;2.03;;
3267;SDS011;1646;52.450;13.326;2024-03-23T13:26:09;7.37;;;1.67;;
3267;SDS011;1646;52.450;13.326;2024-03-23T13:31:06;7.73;;;2.00;;
3267;SDS011;1646;52.450;13.326;2024-03-23T13:36:04;13.27;;;2.93;;
3267;SDS011;1646;52.450;13.326;2024-03-23T13:41:01;6.73;;;2.30;;
3267;SDS011;1646;52.450;13.326;2024-03-23T13:46:03;8.57;;;2.90;;
3267;SDS011;1646;52.450;13.326;2024-03-23T13:51:01;10.20;;;3.50;;
3267;SDS011;1646;52.450;13.326;2024-03-23T13:55:59;9.30;;;2.97;;
3267;SDS011;1646;52.450;13.326;2024-03-23T14:00:56;8.83;;;3.33;;
3267;SDS011;1646;52.450;13.326;2024-03-23T14:05:55;8.80;;;3.20;;
3267;SDS011;1646;52.450;13.326;2024-03-23T14:10:55;11.70;;;3.00;;
3267;SDS011;1646;52.450;13.326;2024-03-23T14:15:53;6.17;;;2.93;;
3267;SDS011;1646;52.450;13.326;2024-03-23T14:20:50;9.83;;;2.93;;
3267;SDS011;1646;52.450;13.326;2024-03-23T14:25:49;10.80;;;3.00;;
3267;SDS011;1646;52.450;13.326;2024-03-23T14:30:49;11.57;;;3.13;;
3267;SDS011;1646;52.450;13.326;2024-03-23T14:35:51;9.90;;;3.20;;
3267;SDS011;1646;52.450;13.326;2024-03-23T14:40:50;10.63;;;3.80;;
3267;SDS011;1646;52.450;13.326;2024-03-23T14:46:05;16.73;;;4.50;;
3267;SDS011;1646;52.450;13.326;2024-03-23T14:51:03;10.17;;;3.70;;
3267;SDS011;1646;52.450;13.326;2024-03-23T14:56:03;7.73;;;4.13;;
3267;SDS011;1646;52.450;13.326;2024-03-23T15:01:01;5.53;;;2.93;;
3267;SDS011;1646;52.450;13.326;2024-03-23T15:05:58;6.63;;;2.43;;
3267;SDS011;1646;52.450;13.326;2024-03-23T15:10:58;7.80;;;2.90;;
3267;SDS011;1646;52.450;13.326;2024-03-23T15:15:57;5.13;;;2.07;;
3267;SDS011;1646;52.450;13.326;2024-03-23T15:20:55;11.03;;;4.80;;
3267;SDS011;1646;52.450;13.326;2024-03-23T15:25:56;5.50;;;2.03;;
3267;SDS011;1646;52.450;13.326;2024-03-23T15:30:58;5.37;;;1.70;;
3267;SDS011;1646;52.450;13.326;2024-03-23T15:35:58;6.03;;;2.07;;
3267;SDS011;1646;52.450;13.326;2024-03-23T15:40:55;6.87;;;1.67;;
3267;SDS011;1646;52.450;13.326;2024-03-23T15:45:55;4.47;;;1.90;;
3267;SDS011;1646;52.450;13.326;2024-03-23T15:50:55;4.83;;;1.50;;
3267;SDS011;1646;52.450;13.326;2024-03-23T15:55:53;5.77;;;1.87;;
3267;SDS011;1646;52.450;13.326;2024-03-23T16:00:54;7.17;;;2.10;;
3267;SDS011;1646;52.450;13.326;2024-03-23T16:05:51;3.40;;;1.70;;
3267;SDS011;1646;52.450;13.326;2024-03-23T16:10:50;10.03;;;2.47;;
3267;SDS011;1646;52.450;13.326;2024-03-23T16:15:54;8.20;;;2.83;;
3267;SDS011;1646;52.450;13.326;2024-03-23T16:20:52;4.40;;;2.10;;
3267;SDS011;1646;52.450;13.326;2024-03-23T16:25:54;4.50;;;1.87;;
3267;SDS011;1646;52.450;13.326;2024-03-23T16:30:56;6.33;;;2.00;;
3267;SDS011;1646;52.450;13.326;2024-03-23T16:35:57;5.87;;;2.97;;
3267;SDS011;1646;52.450;13.326;2024-03-23T16:40:56;5.60;;;2.13;;
3267;SDS011;1646;52.450;13.326;2024-03-23T16:45:55;3.70;;;2.50;;
3267;SDS011;1646;52.450;13.326;2024-03-23T16:50:56;7.90;;;1.80;;
3267;SDS011;1646;52.450;13.326;2024-03-23T16:55:54;8.60;;;2.10;;
3267;SDS011;1646;52.450;13.326;2024-03-23T17:00:54;5.10;;;2.00;;
3267;SDS011;1646;52.450;13.326;2024-03-23T17:05:52;5.00;;;1.80;;
3267;SDS011;1646;52.450;13.326;2024-03-23T17:10:49;9.07;;;2.43;;
3267;SDS011;1646;52.450;13.326;2024-03-23T17:15:46;6.33;;;2.50;;
3267;SDS011;1646;52.450;13.326;2024-03-23T17:20:45;9.30;;;2.27;;
3267;SDS011;1646;52.450;13.326;2024-03-23T17:25:42;6.17;;;2.90;;
3267;SDS011;1646;52.450;13.326;2024-03-23T17:30:39;3.90;;;2.13;;
3267;SDS011;1646;52.450;13.326;2024-03-23T17:35:36;17.33;;;2.27;;
3267;SDS011;1646;52.450;13.326;2024-03-23T17:40:35;3.10;;;2.20;;
3267;SDS011;1646;52.450;13.326;2024-03-23T17:45:32;3.80;;;2.47;;
3267;SDS011;1646;52.450;13.326;2024-03-23T17:50:29;8.17;;;2.40;;
3267;SDS011;1646;52.450;13.326;2024-03-23T17:55:27;6.77;;;2.63;;
3267;SDS011;1646;52.450;13.326;2024-03-23T18:00:26;3.60;;;2.40;;
3267;SDS011;1646;52.450;13.326;2024-03-23T18:05:42;7.00;;;2.30;;
3267;SDS011;1646;52.450;13.326;2024-03-23T18:10:40;4.47;;;2.70;;
3267;SDS011;1646;52.450;13.326;2024-03-23T18:15:38;7.83;;;3.00;;
3267;SDS011;1646;52.450;13.326;2024-03-23T18:20:35;11.90;;;3.37;;
3267;SDS011;1646;52.450;13.326;2024-03-23T18:25:33;5.73;;;1.80;;
3267;SDS011;1646;52.450;13.326;2024-03-23T18:30:30;7.60;;;1.57;;
3267;SDS011;1646;52.450;13.326;2024-03-23T18:35:28;5.47;;;1.83;;
3267;SDS011;1646;52.450;13.326;2024-03-23T18:40:25;4.00;;;1.70;;
3267;SDS011;1646;52.450;13.326;2024-03-23T18:45:22;1.83;;;1.53;;
3267;SDS011;1646;52.450;13.326;2024-03-23T18:50:19;6.10;;;1.53;;
3267;SDS011;1646;52.450;13.326;2024-03-23T18:55:18;3.97;;;1.53;;
3267;SDS011;1646;52.450;13.326;2024-03-23T19:00:16;3.00;;;1.83;;
3267;SDS011;1646;52.450;13.326;2024-03-23T19:05:14;3.23;;;1.30;;
3267;SDS011;1646;52.450;13.326;2024-03-23T19:10:11;3.47;;;1.43;;
3267;SDS011;1646;52.450;13.326;2024-03-23T19:15:10;4.30;;;1.87;;
3267;SDS011;1646;52.450;13.326;2024-03-23T19:20:07;2.33;;;1.43;;
3267;SDS011;1646;52.450;13.326;2024-03-23T19:25:05;3.70;;;1.97;;
3267;SDS011;1646;52.450;13.326;2024-03-23T19:30:05;4.10;;;1.80;;
3267;SDS011;1646;52.450;13.326;2024-03-23T19:35:05;4.80;;;1.57;;
3267;SDS011;1646;52.450;13.326;2024-03-23T19:40:02;9.50;;;1.60;;
3267;SDS011;1646;52.450;13.326;2024-03-23T19:45:00;3.80;;;1.73;;
3267;SDS011;1646;52.450;13.326;2024-03-23T19:49:57;5.70;;;1.97;;
3267;SDS011;1646;52.450;13.326;2024-03-23T19:54:56;6.07;;;2.30;;
3267;SDS011;1646;52.450;13.326;2024-03-23T19:59:53;5.40;;;2.43;;
3267;SDS011;1646;52.450;13.326;2024-03-23T20:04:50;5.07;;;2.60;;
3267;SDS011;1646;52.450;13.326;2024-03-23T20:09:47;5.30;;;2.27;;
3267;SDS011;1646;52.450;13.326;2024-03-23T20:14:46;3.83;;;2.27;;
3267;SDS011;1646;52.450;13.326;2024-03-23T20:19:43;6.97;;;2.87;;
3267;SDS011;1646;52.450;13.326;2024-03-23T20:24:40;3.50;;;2.20;;
3267;SDS011;1646;52.450;13.326;2024-03-23T20:29:37;4.57;;;2.70;;
3267;SDS011;1646;52.450;13.326;2024-03-23T20:34:36;3.43;;;2.43;;
3267;SDS011;1646;52.450;13.326;2024-03-23T20:39:33;5.03;;;2.97;;
3267;SDS011;1646;52.450;13.326;2024-03-23T20:44:30;5.57;;;3.10;;
3267;SDS011;1646;52.450;13.326;2024-03-23T20:49:27;7.43;;;3.73;;
3267;SDS011;1646;52.450;13.326;2024-03-23T20:54:26;4.90;;;2.80;;
3267;SDS011;1646;52.450;13.326;2024-03-23T20:59:23;9.00;;;4.63;;
3267;SDS011;1646;52.450;13.326;2024-03-23T21:04:20;4.60;;;3.00;;
3267;SDS011;1646;52.450;13.326;2024-03-23T21:09:17;7.13;;;3.00;;
3267;SDS011;1646;52.450;13.326;2024-03-23T21:14:16;6.13;;;2.83;;
3267;SDS011;1646;52.450;13.326;2024-03-23T21:19:13;6.00;;;3.10;;
3267;SDS011;1646;52.450;13.326;2024-03-23T21:24:10;3.60;;;2.53;;
3267;SDS011;1646;52.450;13.326;2024-03-23T21:29:07;8.43;;;3.00;;
3267;SDS011;1646;52.450;13.326;2024-03-23T21:34:06;5.90;;;3.20;;
3267;SDS011;1646;52.450;13.326;2024-03-23T21:39:03;7.03;;;3.37;;
3267;SDS011;1646;52.450;13.326;2024-03-23T21:44:02;6.43;;;3.90;;
3267;SDS011;1646;52.450;13.326;2024-03-23T21:49:00;7.00;;;3.70;;
3267;SDS011;1646;52.450;13.326;2024-03-23T21:53:59;6.67;;;3.60;;
3267;SDS011;1646;52.450;13.326;2024-03-23T21:58:58;8.03;;;4.40;;
3267;SDS011;1646;52.450;13.326;2024-03-23T22:03:55;6.30;;;3.60;;
3267;SDS011;1646;52.450;13.326;2024-03-23T22:08:52;6.90;;;3.10;;
3267;SDS011;1646;52.450;13.326;2024-03-23T22:13:51;5.10;;;3.40;;
3267;SDS011;1646;52.450;13.326;2024-03-23T22:18:48;6.27;;;3.63;;
3267;SDS011;1646;52.450;13.326;2024-03-23T22:23:45;5.17;;;3.27;;
3267;SDS011;1646;52.450;13.326;2024-03-23T22:28:45;8.03;;;3.80;;
3267;SDS011;1646;52.450;13.326;2024-03-23T22:33:44;5.60;;;3.77;;
3267;SDS011;1646;52.450;13.326;2024-03-23T22:38:41;5.30;;;3.77;;
3267;SDS011;1646;52.450;13.326;2024-03-23T22:43:38;5.40;;;3.37;;
3267;SDS011;1646;52.450;13.326;2024-03-23T22:48:36;5.60;;;3.23;;
3267;SDS011;1646;52.450;13.326;2024-03-23T22:53:34;6.50;;;3.77;;
3267;SDS011;1646;52.450;13.326;2024-03-23T22:58:31;9.80;;;3.57;;
3267;SDS011;1646;52.450;13.326;2024-03-23T23:03:29;8.90;;;3.13;;
3267;SDS011;1646;52.450;13.326;2024-03-23T23:08:26;5.83;;;3.63;;
3267;SDS011;1646;52.450;13.326;2024-03-23T23:13:25;9.70;;;3.80;;
3267;SDS011;1646;52.450;13.326;2024-03-23T23:18:24;4.43;;;3.03;;
3267;SDS011;1646;52.450;13.326;2024-03-23T23:23:22;6.97;;;3.60;;
3267;SDS011;1646;52.450;13.326;2024-03-23T23:28:20;10.60;;;4.10;;
3267;SDS011;1646;52.450;13.326;2024-03-23T23:33:19;6.13;;;3.60;;
3267;SDS011;1646;52.450;13.326;2024-03-23T23:38:16;9.40;;;4.23;;
3267;SDS011;1646;52.450;13.326;2024-03-23T23:43:13;6.07;;;3.83;;
3267;SDS011;1646;52.450;13.326;2024-03-23T23:48:10;8.43;;;3.73;;
3267;SDS011;1646;52.450;13.326;2024-03-23T23:53:09;7.10;;;3.63;;
3267;SDS011;1646;52.450;13.326;2024-03-23T23:58:06;5.03;;;3.57;;
